Time;durP1;ratioP1;P1;durP2;ratioP2;P2;SDS_P1;SDS_P2;PMS_P1;PMS_P2;Temp;Humidity;BMP_temperature;BMP_pressure;BME280_temperature;BME280_humidity;BME280_pressure;Samples;Min_cycle;Max_cycle;Signal;HPM_P1;HPM_P2
2023/10/10 00:00:27;;;;;;;;;15.67;15.67;;;;;17.51;100.00;101708.34;5032865;28;45697;-82
2023/10/10 00:02:54;;;;;;;;;27.67;23.33;;;;;17.49;100.00;101704.97;5036368;28;45874;-83
2023/10/10 00:05:33;;;;;;;;;24.67;24.33;;;;;17.34;100.00;101686.78;5046480;28;45476;-83
2023/10/10 00:08:00;;;;;;;;;31.33;24.00;;;;;17.41;100.00;101704.19;5040964;28;45791;-84
2023/10/10 00:10:27;;;;;;;;;27.67;24.00;;;;;17.36;100.00;101705.94;5033834;28;45544;-84
2023/10/10 00:12:53;;;;;;;;;28.67;24.67;;;;;17.38;100.00;101714.88;5012283;28;47279;-84
2023/10/10 00:15:22;;;;;;;;;24.67;20.67;;;;;17.36;100.00;101712.31;5045643;28;45561;-83
2023/10/10 00:17:48;;;;;;;;;32.67;29.33;;;;;17.29;100.00;101703.25;5042652;28;45398;-85
2023/10/10 00:20:16;;;;;;;;;30.33;26.00;;;;;17.24;100.00;101708.63;5033321;28;45451;-81
2023/10/10 00:22:46;;;;;;;;;26.67;22.67;;;;;17.27;100.00;101714.56;5059377;28;46144;-82
2023/10/10 00:25:12;;;;;;;;;25.67;23.67;;;;;17.27;100.00;101719.25;5034982;28;45742;-82
2023/10/10 00:27:43;;;;;;;;;25.33;23.33;;;;;17.24;100.00;101709.47;5017000;28;45485;-83
2023/10/10 00:30:11;;;;;;;;;22.33;20.33;;;;;17.16;100.00;101704.25;5041909;28;45675;-82
2023/10/10 00:32:42;;;;;;;;;20.00;20.00;;;;;17.19;100.00;101712.09;5036101;28;45590;-83
2023/10/10 00:35:09;;;;;;;;;24.33;20.00;;;;;17.18;100.00;101710.41;5022194;28;45542;-81
2023/10/10 00:37:35;;;;;;;;;27.67;22.33;;;;;17.19;100.00;101711.25;5014070;28;45606;-82
2023/10/10 00:40:14;;;;;;;;;26.33;24.33;;;;;17.16;100.00;101712.56;5046965;28;46282;-81
2023/10/10 00:42:42;;;;;;;;;26.00;25.00;;;;;17.16;100.00;101714.50;5030076;28;46770;-82
2023/10/10 00:45:10;;;;;;;;;28.67;24.67;;;;;17.14;100.00;101719.41;5042820;28;45695;-83
2023/10/10 00:47:43;;;;;;;;;27.00;22.33;;;;;17.03;100.00;101707.16;5047854;28;45809;-82
2023/10/10 00:50:15;;;;;;;;;23.33;20.67;;;;;17.06;100.00;101712.22;5027280;28;46162;-82
2023/10/10 00:52:42;;;;;;;;;28.67;23.00;;;;;16.97;100.00;101695.03;5037556;28;45569;-80
2023/10/10 00:55:09;;;;;;;;;23.00;23.00;;;;;17.01;100.00;101710.16;5038858;28;45402;-82
2023/10/10 00:57:35;;;;;;;;;22.00;21.00;;;;;17.01;100.00;101712.09;4991766;28;1308194;-81
2023/10/10 01:00:07;;;;;;;;;20.00;20.00;;;;;16.98;100.00;101698.69;5039043;28;45520;-81
2023/10/10 01:02:34;;;;;;;;;20.33;20.00;;;;;16.93;100.00;101694.66;5040901;28;47049;-81
2023/10/10 01:05:05;;;;;;;;;25.00;23.00;;;;;16.90;100.00;101697.91;5048463;28;44947;-82
2023/10/10 01:07:37;;;;;;;;;23.67;21.33;;;;;16.88;100.00;101699.19;5038538;28;45284;-82
2023/10/10 01:10:11;;;;;;;;;21.00;20.33;;;;;16.82;100.00;101694.53;5057120;28;45276;-84
2023/10/10 01:12:39;;;;;;;;;26.67;20.33;;;;;16.86;100.00;101701.31;5049005;28;45973;-82
2023/10/10 01:15:16;;;;;;;;;23.67;19.33;;;;;16.82;100.00;101689.81;5024384;28;45789;-83
2023/10/10 01:17:43;;;;;;;;;21.67;18.00;;;;;16.74;100.00;101681.81;5041713;28;45560;-81
2023/10/10 01:22:40;;;;;;;;;20.00;17.00;;;;;16.80;100.00;101693.94;5036864;28;46050;-80
2023/10/10 01:27:53;;;;;;;;;21.00;20.33;;;;;16.72;100.00;101686.72;5050330;28;45597;-81
2023/10/10 01:30:19;;;;;;;;;19.67;18.67;;;;;16.71;100.00;101687.81;5044918;28;45806;-80
2023/10/10 01:32:50;;;;;;;;;24.67;21.67;;;;;16.67;100.00;101686.56;5055152;28;46448;-81
2023/10/10 01:35:16;;;;;;;;;24.00;22.00;;;;;16.66;100.00;101694.03;5051752;28;45709;-81
2023/10/10 01:37:54;;;;;;;;;24.33;21.67;;;;;16.63;100.00;101686.19;5046590;28;45470;-81
2023/10/10 01:40:19;;;;;;;;;22.67;20.33;;;;;16.63;100.00;101686.19;5043436;28;45706;-81
2023/10/10 01:42:53;;;;;;;;;30.67;22.00;;;;;16.63;100.00;101688.09;5052362;28;45903;-81
2023/10/10 01:45:27;;;;;;;;;22.33;20.00;;;;;16.62;100.00;101683.63;5020867;28;45760;-82
2023/10/10 01:48:02;;;;;;;;;24.67;21.00;;;;;16.57;100.00;101671.31;5043427;28;45460;-82
2023/10/10 01:50:30;;;;;;;;;27.33;23.33;;;;;16.60;100.00;101675.53;5059673;28;45461;-82
2023/10/10 01:52:56;;;;;;;;;23.00;21.67;;;;;16.59;100.00;101682.16;5047068;28;48240;-81
2023/10/10 01:55:24;;;;;;;;;27.33;22.00;;;;;16.58;100.00;101672.16;5060403;28;45215;-81
2023/10/10 01:57:50;;;;;;;;;23.00;20.33;;;;;16.55;100.00;101675.38;5047235;28;45704;-81
2023/10/10 02:02:52;;;;;;;;;24.67;21.33;;;;;16.52;100.00;101673.91;5039384;28;45883;-82
2023/10/10 02:05:32;;;;;;;;;28.00;25.33;;;;;16.51;100.00;101676.91;5051413;28;45782;-81
2023/10/10 02:07:58;;;;;;;;;24.33;23.00;;;;;16.47;100.00;101673.75;5058085;28;45408;-82
2023/10/10 02:10:29;;;;;;;;;27.00;22.33;;;;;16.46;100.00;101662.91;5038938;28;46205;-81
2023/10/10 02:12:59;;;;;;;;;23.67;20.67;;;;;16.46;100.00;101674.81;5047465;28;45993;-81
2023/10/10 02:15:32;;;;;;;;;30.00;23.00;;;;;16.45;100.00;101658.41;5038920;28;45633;-82
2023/10/10 02:18:04;;;;;;;;;21.00;17.67;;;;;16.43;100.00;101669.72;5043122;28;45585;-81
2023/10/10 02:23:01;;;;;;;;;26.33;20.33;;;;;16.37;100.00;101663.16;5058544;28;45425;-83
2023/10/10 02:28:03;;;;;;;;;26.00;22.67;;;;;16.37;100.00;101651.25;5050138;28;45493;-80
2023/10/10 02:30:35;;;;;;;;;26.33;22.67;;;;;16.36;100.00;101655.06;5035991;28;45274;-81
2023/10/10 02:35:47;;;;;;;;;25.67;21.67;;;;;16.32;100.00;101645.56;5034698;28;45388;-80
2023/10/10 02:38:12;;;;;;;;;29.00;22.00;;;;;16.35;100.00;101650.63;5039967;28;45431;-82
2023/10/10 02:40:43;;;;;;;;;21.33;18.67;;;;;16.35;100.00;101653.41;5059124;28;45439;-82
2023/10/10 02:43:33;;;;;;;;;21.00;17.67;;;;;16.31;100.00;101658.53;5056925;28;45410;-81
2023/10/10 02:45:59;;;;;;;;;25.33;19.67;;;;;16.23;100.00;101650.50;5036998;28;45529;-80
2023/10/10 02:48:27;;;;;;;;;17.67;17.67;;;;;16.29;100.00;101652.38;5035751;28;45503;-80
2023/10/10 02:50:53;;;;;;;;;18.33;15.33;;;;;16.25;100.00;101656.66;5039079;28;45554;-82
2023/10/10 02:53:19;;;;;;;;;22.33;21.00;;;;;16.24;100.00;101658.59;5034769;28;45903;-83
2023/10/10 02:55:51;;;;;;;;;23.33;19.33;;;;;16.23;100.00;101658.81;5031052;28;45812;-81
2023/10/10 02:58:21;;;;;;;;;22.33;18.33;;;;;16.22;100.00;101648.81;5037807;28;45046;-81
2023/10/10 03:00:50;;;;;;;;;16.33;16.33;;;;;16.22;100.00;101646.03;5038475;28;45833;-82
2023/10/10 03:03:19;;;;;;;;;20.00;17.00;;;;;16.19;100.00;101649.25;5046005;28;45317;-82
2023/10/10 03:05:51;;;;;;;;;21.00;19.33;;;;;16.16;100.00;101646.94;5037094;28;45302;-81
2023/10/10 03:08:34;;;;;;;;;18.33;17.00;;;;;16.16;100.00;101642.25;5020320;28;45625;-81
2023/10/10 03:11:14;;;;;;;;;20.67;19.00;;;;;16.18;100.00;101639.25;5018130;28;46077;-82
2023/10/10 03:13:54;;;;;;;;;19.67;17.67;;;;;16.13;100.00;101633.56;5036341;28;45351;-82
2023/10/10 03:21:42;;;;;;;;;23.33;21.00;;;;;16.05;100.00;101623.59;5035874;28;45829;-81
2023/10/10 03:24:15;;;;;;;;;19.00;16.67;;;;;16.13;100.00;101639.94;5036989;28;46253;-81
2023/10/10 03:29:20;;;;;;;;;22.00;18.67;;;;;16.11;100.00;101636.53;5039328;28;45423;-81
2023/10/10 03:32:18;;;;;;;;;18.33;18.33;;;;;16.10;100.00;101645.91;5034943;28;45697;-85
2023/10/10 03:34:44;;;;;;;;;18.00;18.00;;;;;16.10;100.00;101643.13;5035085;28;46553;-83
2023/10/10 03:37:30;;;;;;;;;20.33;19.33;;;;;16.10;100.00;101645.06;5033795;28;45675;-83
2023/10/10 03:40:10;;;;;;;;;20.67;20.00;;;;;15.97;100.00;101627.50;5035589;28;45755;-82
2023/10/10 05:24:19;;;;;;;;;33.33;27.67;;;;;15.48;100.00;101609.69;5033224;28;46049;-84
2023/10/10 05:26:47;;;;;;;;;25.67;25.67;;;;;15.47;100.00;101616.25;5034829;28;45786;-81
2023/10/10 05:29:24;;;;;;;;;26.00;24.67;;;;;15.46;100.00;101609.03;5036886;28;45913;-84
2023/10/10 05:31:56;;;;;;;;;36.67;25.00;;;;;15.42;100.00;101603.09;5041797;28;45720;-84
2023/10/10 05:34:23;;;;;;;;;39.00;32.67;;;;;15.38;100.00;101593.56;5040544;28;45712;-83
2023/10/10 05:36:48;;;;;;;;;43.33;34.33;;;;;15.42;100.00;101602.25;5012168;28;45614;-83
2023/10/10 05:39:21;;;;;;;;;44.00;33.33;;;;;15.38;100.00;101595.47;5021467;28;45729;-85
2023/10/10 05:41:54;;;;;;;;;40.00;33.33;;;;;15.37;100.00;101597.38;5017552;28;45483;-82
2023/10/10 05:44:25;;;;;;;;;42.00;31.67;;;;;15.38;100.00;101592.72;5035657;28;46066;-83
2023/10/10 05:46:52;;;;;;;;;35.67;28.33;;;;;15.32;100.00;101595.28;5017776;28;45763;-85
2023/10/10 05:49:18;;;;;;;;;36.33;26.33;;;;;15.31;100.00;101599.13;5041511;28;45467;-83
2023/10/10 05:51:43;;;;;;;;;32.67;26.33;;;;;15.28;100.00;101607.00;5057528;28;45320;-83
2023/10/10 05:54:11;;;;;;;;;27.00;21.33;;;;;15.24;100.00;101601.06;5046216;28;45050;-84
2023/10/10 05:56:37;;;;;;;;;23.33;22.00;;;;;15.20;100.00;101597.03;5038988;28;45686;-83
2023/10/10 05:59:03;;;;;;;;;27.00;20.67;;;;;15.24;100.00;101606.59;5051658;28;45468;-84
2023/10/10 06:01:36;;;;;;;;;34.00;26.33;;;;;15.09;100.00;101584.75;5054591;28;45504;-87
2023/10/10 06:04:01;;;;;;;;;27.33;25.00;;;;;15.21;100.00;101601.50;5047924;28;46322;-84
2023/10/10 06:06:29;;;;;;;;;17.67;15.33;;;;;15.22;100.00;101607.88;5043740;28;45358;-84
2023/10/10 06:09:00;;;;;;;;;31.00;23.33;;;;;15.25;100.00;101611.03;5047976;28;44800;-80
2023/10/10 06:11:27;;;;;;;;;34.33;31.67;;;;;15.24;100.00;101617.66;5029118;28;46341;-83
2023/10/10 06:13:53;;;;;;;;;29.00;23.33;;;;;15.25;100.00;101610.19;5055001;28;46388;-84
2023/10/10 06:16:20;;;;;;;;;33.33;30.33;;;;;15.13;100.00;101591.53;5042564;28;45749;-84
2023/10/10 06:18:47;;;;;;;;;36.00;32.67;;;;;15.22;100.00;101607.88;5059508;28;45207;-85
2023/10/10 06:21:14;;;;;;;;;36.33;32.33;;;;;15.35;100.00;101614.19;5053150;28;45448;-83
2023/10/10 06:23:41;;;;;;;;;40.33;30.33;;;;;15.42;100.00;101610.53;5035343;28;46465;-86
2023/10/10 06:26:07;;;;;;;;;28.33;25.33;;;;;15.48;100.00;101612.44;5035674;28;45799;-83
2023/10/10 06:28:37;;;;;;;;;32.67;29.67;;;;;15.56;100.00;101609.41;5027507;28;45145;-84
2023/10/10 06:31:09;;;;;;;;;38.67;32.67;;;;;15.64;100.00;101613.81;5023386;28;46223;-83
2023/10/10 06:33:35;;;;;;;;;38.67;32.67;;;;;15.70;100.00;101613.81;5015298;28;47226;-84
2023/10/10 06:36:01;;;;;;;;;41.67;35.00;;;;;15.79;100.00;101610.78;5034655;28;46236;-84
2023/10/10 06:38:27;;;;;;;;;38.00;33.00;;;;;15.91;100.00;101614.53;5035625;28;45545;-84
2023/10/10 06:40:53;;;;;;;;;44.33;35.00;;;;;16.03;100.00;101598.94;5040127;28;45520;-86
2023/10/10 06:43:24;;;;;;;;;34.67;32.67;;;;;16.21;100.00;101605.59;5021156;28;46866;-86
2023/10/10 06:45:54;;;;;;;;;43.33;34.00;;;;;16.33;100.00;101603.81;5022714;28;46088;-76
2023/10/10 06:48:32;;;;;;;;;46.00;34.33;;;;;16.34;100.00;101583.31;5032134;28;45418;-76
2023/10/10 06:50:57;;;;;;;;;45.33;35.67;;;;;16.59;100.00;101607.41;5027824;28;45416;-76
2023/10/10 06:53:34;;;;;;;;;46.00;36.00;;;;;16.64;100.00;101596.47;5025067;28;46691;-75
2023/10/10 06:56:14;;;;;;;;;36.33;30.33;;;;;16.88;100.00;101605.00;5030970;28;45753;-75
2023/10/10 06:58:43;;;;;;;;;41.33;29.33;;;;;17.03;100.00;101602.66;5030036;28;45385;-83
2023/10/10 07:01:11;;;;;;;;;34.33;33.00;;;;;17.26;100.00;101599.22;5035045;28;45403;-83
2023/10/10 07:03:39;;;;;;;;;45.67;36.00;;;;;17.48;100.00;101601.47;5030558;28;45993;-83
2023/10/10 07:06:08;;;;;;;;;40.00;33.67;;;;;17.72;100.00;101613.50;5044276;28;45802;-84
2023/10/10 07:08:34;;;;;;;;;42.67;33.33;;;;;17.92;100.00;101606.84;5039445;28;46062;-86
2023/10/10 07:11:00;;;;;;;;;45.67;35.00;;;;;18.08;100.00;101613.66;5039013;28;45829;-82
2023/10/10 07:13:35;;;;;;;;;37.00;31.67;;;;;18.22;100.00;101609.59;5032212;28;46706;-84
2023/10/10 07:16:01;;;;;;;;;47.33;37.67;;;;;18.33;100.00;101613.47;5041472;28;45862;-84
2023/10/10 07:18:28;;;;;;;;;43.00;35.00;;;;;18.38;100.00;101619.13;5019387;28;45989;-85
2023/10/10 07:21:04;;;;;;;;;46.67;36.67;;;;;18.34;100.00;101596.56;5033298;28;45918;-85
2023/10/10 07:23:37;;;;;;;;;43.33;33.33;;;;;18.53;100.00;101613.97;5028029;28;45986;-84
2023/10/10 07:26:18;;;;;;;;;50.33;37.67;;;;;18.61;100.00;101612.75;5023018;28;45521;-85
2023/10/10 07:28:52;;;;;;;;;49.00;37.33;;;;;18.79;100.00;101610.94;5031073;28;45992;-86
2023/10/10 07:31:22;;;;;;;;;49.33;38.33;;;;;18.90;100.00;101612.88;5017858;28;46040;-85
2023/10/10 07:34:14;;;;;;;;;48.33;40.00;;;;;19.00;100.00;101602.00;5037409;28;45763;-84
2023/10/10 07:36:43;;;;;;;;;44.00;35.67;;;;;19.18;100.00;101617.69;5027831;28;46310;-84
2023/10/10 07:39:32;;;;;;;;;55.00;41.00;;;;;19.20;100.00;101620.22;5012358;28;45615;-86
2023/10/10 07:41:57;;;;;;;;;49.67;40.33;;;;;19.32;100.00;101623.78;5011225;28;46048;-84
2023/10/10 07:44:23;;;;;;;;;57.67;41.67;;;;;19.37;100.00;101618.34;5031686;28;46879;-85
2023/10/10 07:47:19;;;;;;;;;49.00;40.67;;;;;19.52;100.00;101625.31;5022544;28;45225;-84
2023/10/10 07:49:50;;;;;;;;;57.00;42.67;;;;;19.64;100.00;101636.41;5038381;28;45103;-85
2023/10/10 07:52:20;;;;;;;;;59.33;44.67;;;;;19.76;100.00;101637.22;5022651;28;45825;-82
2023/10/10 07:54:46;;;;;;;;;59.33;43.00;;;;;19.87;100.00;101649.41;5047912;28;46926;-83
2023/10/10 07:57:55;;;;;;;;;59.33;45.33;;;;;19.89;100.00;101633.28;5044257;28;45387;-85
2023/10/10 07:59:58;;;;;;;;;58.00;45.33;;;;;20.06;100.00;101644.47;5042865;28;45477;-83
2023/10/10 08:02:24;;;;;;;;;59.67;45.00;;;;;20.12;100.00;101649.06;5037703;28;45468;-84
2023/10/10 08:04:54;;;;;;;;;64.67;44.00;;;;;20.13;100.00;101644.31;5038475;28;45784;-84
2023/10/10 08:07:20;;;;;;;;;56.00;40.33;;;;;20.21;100.00;101653.09;5044905;28;45498;-83
2023/10/10 08:09:48;;;;;;;;;61.00;41.33;;;;;20.21;100.00;101641.97;5020620;28;45812;-84
2023/10/10 08:12:13;;;;;;;;;54.00;41.00;;;;;20.29;100.00;101640.69;5035232;28;45492;-84
2023/10/10 08:14:39;;;;;;;;;52.67;41.00;;;;;20.42;100.00;101645.09;5045574;28;46268;-85
2023/10/10 08:17:18;;;;;;;;;56.00;42.00;;;;;20.55;100.00;101641.13;5019928;28;45539;-84
2023/10/10 08:19:53;;;;;;;;;59.00;42.33;;;;;20.52;100.00;101606.22;5032060;28;45885;-84
2023/10/10 08:22:25;;;;;;;;;50.33;40.33;;;;;20.79;100.00;101628.72;5027569;28;45792;-84
2023/10/10 08:24:51;;;;;;;;;53.67;42.67;;;;;20.95;100.00;101629.78;5050448;28;46638;-86
2023/10/10 08:27:17;;;;;;;;;53.67;42.67;;;;;21.11;100.00;101624.41;5033562;28;45495;-84
2023/10/10 08:29:43;;;;;;;;;49.67;37.33;;;;;21.25;100.00;101622.91;5034211;28;45838;-83
2023/10/10 08:32:08;;;;;;;;;45.33;36.33;;;;;21.42;100.00;101622.00;5040582;28;46396;-82
2023/10/10 08:34:38;;;;;;;;;49.00;38.67;;;;;21.63;100.00;101631.50;5038463;28;46402;-86
2023/10/10 08:37:05;;;;;;;;;48.33;38.00;;;;;21.66;100.00;101606.69;5033479;28;45237;-84
2023/10/10 08:39:35;;;;;;;;;51.33;42.33;;;;;21.89;100.00;101629.84;5045166;28;45859;-84
2023/10/10 08:42:05;;;;;;;;;50.67;40.33;;;;;21.97;100.00;101623.75;5040185;28;45949;-84
2023/10/10 08:44:37;;;;;;;;;47.00;37.33;;;;;22.04;100.00;101620.75;5040946;28;45756;-84
2023/10/10 08:47:06;;;;;;;;;53.00;40.33;;;;;22.10;100.00;101622.50;5040034;28;45270;-84
2023/10/10 08:49:32;;;;;;;;;47.67;38.67;;;;;22.17;100.00;101620.31;5046307;28;45581;-84
2023/10/10 08:52:03;;;;;;;;;50.67;37.33;;;;;22.20;100.00;101604.97;5043148;28;45503;-85
2023/10/10 08:54:29;;;;;;;;;48.67;39.67;;;;;22.43;100.00;101619.72;5034305;28;46219;-86
2023/10/10 08:57:00;;;;;;;;;54.33;43.33;;;;;22.54;100.00;101615.88;5035236;28;45462;-85
2023/10/10 08:59:28;;;;;;;;;47.33;38.67;;;;;22.65;100.00;101626.03;5043718;28;45678;-83
2023/10/10 09:02:12;;;;;;;;;48.33;35.33;;;;;22.76;100.00;101620.53;5040077;28;45732;-85
2023/10/10 09:04:37;;;;;;;;;49.00;38.00;;;;;22.82;100.00;101625.03;5039456;28;46081;-86
2023/10/10 09:07:08;;;;;;;;;50.33;40.33;;;;;22.95;100.00;101618.09;5041168;28;45810;-83
2023/10/10 09:09:34;;;;;;;;;49.00;39.67;;;;;23.11;100.00;101619.06;5039051;28;45424;-82
2023/10/10 09:12:04;;;;;;;;;49.67;38.33;;;;;23.27;100.00;101612.44;5029727;28;46044;-86
2023/10/10 09:14:40;;;;;;;;;43.67;37.67;;;;;23.54;100.00;101617.84;5017754;28;47436;-83
2023/10/10 09:17:10;;;;;;;;;49.67;39.67;;;;;23.74;100.00;101617.06;5039699;28;45423;-83
2023/10/10 09:19:47;;;;;;;;;51.33;39.33;;;;;23.92;100.00;101601.72;5052023;28;45489;-84
2023/10/10 09:22:42;;;;;;;;;54.67;40.33;;;;;24.20;100.00;101607.06;5052117;28;45727;-83
2023/10/10 09:25:26;;;;;;;;;52.33;39.33;;;;;24.66;100.00;101615.47;5037249;28;45738;-83
2023/10/10 09:27:58;;;;;;;;;52.67;39.67;;;;;25.13;100.00;101608.59;5037747;28;46341;-84
2023/10/10 09:30:32;;;;;;;;;52.33;39.67;;;;;25.47;100.00;101602.31;5053259;28;44854;-83
2023/10/10 09:35:49;;;;;;;;;49.67;39.33;;;;;26.06;100.00;101599.69;5037795;28;45762;-85
2023/10/10 09:38:19;;;;;;;;;43.00;34.67;;;;;26.26;100.00;101607.16;5028239;28;45538;-84
2023/10/10 09:40:48;;;;;;;;;44.67;37.67;;;;;26.51;100.00;101608.91;5047057;28;45543;-83
2023/10/10 09:43:25;;;;;;;;;38.33;33.67;;;;;26.83;100.00;101607.47;5033767;28;46180;-83
2023/10/10 09:46:10;;;;;;;;;31.67;29.67;;;;;27.16;100.00;101595.53;5020949;28;46558;-84
2023/10/10 09:53:49;;;;;;;;;33.67;29.00;;;;;29.03;100.00;101604.41;5044542;28;45561;-84
2023/10/10 09:56:15;;;;;;;;;28.67;23.33;;;;;29.71;97.67;101597.00;5043499;28;45427;-85
2023/10/10 09:58:44;;;;;;;;;37.67;27.33;;;;;30.45;94.00;101609.94;5036415;28;45499;-84
2023/10/10 10:01:18;;;;;;;;;34.00;27.67;;;;;31.36;87.60;101595.50;5035809;28;45768;-86
2023/10/10 10:03:59;;;;;;;;;23.67;21.00;;;;;31.96;82.95;101584.56;5024158;28;45389;-86
2023/10/10 10:06:54;;;;;;;;;28.67;24.33;;;;;32.70;80.12;101597.66;5030930;28;48185;-84
2023/10/10 10:09:37;;;;;;;;;18.50;16.50;;;;;32.85;73.79;101598.28;5033085;28;45780;-83
2023/10/10 10:12:33;;;;;;;;;17.00;12.50;;;;;32.98;70.88;101596.38;5017856;28;45874;-83
2023/10/10 10:15:16;;;;;;;;;12.50;11.50;;;;;32.97;68.46;101595.56;5024047;28;46185;-82
2023/10/10 10:18:11;;;;;;;;;15.50;14.25;;;;;33.42;68.09;101594.16;5035360;28;45734;-82
2023/10/10 10:23:17;;;;;;;;;13.75;12.00;;;;;33.59;65.76;101588.34;5032937;28;45769;-83
2023/10/10 10:25:46;;;;;;;;;15.50;11.00;;;;;34.01;64.26;101572.44;5014903;28;45913;-84
2023/10/10 10:28:14;;;;;;;;;12.25;10.75;;;;;34.08;61.63;101581.25;5015788;28;47203;-83
2023/10/10 10:30:47;;;;;;;;;12.50;9.50;;;;;33.98;61.69;101581.69;5033369;28;45661;-83
2023/10/10 10:33:22;;;;;;;;;12.00;10.00;;;;;33.82;61.28;101578.63;5037091;28;45468;-81
2023/10/10 10:35:56;;;;;;;;;13.25;11.25;;;;;33.44;60.90;101580.41;5034873;28;45448;-85
2023/10/10 10:38:26;;;;;;;;;13.00;10.25;;;;;33.24;61.05;101548.78;5037587;28;45804;-82
2023/10/10 10:41:04;;;;;;;;;12.25;10.25;;;;;33.29;60.77;101569.66;5036267;28;45548;-81
2023/10/10 10:43:42;;;;;;;;;10.75;10.75;;;;;32.97;60.01;101574.84;5046655;28;45859;-82
2023/10/10 10:46:14;;;;;;;;;10.50;10.50;;;;;32.39;60.37;101555.31;5036687;28;45965;-81
2023/10/10 10:48:48;;;;;;;;;11.50;11.50;;;;;32.05;61.26;101574.03;5020080;28;47050;-80
2023/10/10 10:51:22;;;;;;;;;11.50;10.25;;;;;31.53;62.24;101577.72;5039664;28;45716;-82
2023/10/10 10:53:56;;;;;;;;;13.75;9.75;;;;;31.38;63.19;101576.19;5022524;28;45798;-81
2023/10/10 11:01:22;;;;;;;;;15.00;9.75;;;;;31.36;65.82;101564.31;5031034;28;45533;-81
2023/10/10 11:03:54;;;;;;;;;11.75;9.50;;;;;31.22;66.25;101546.66;5032440;28;45467;-81
2023/10/10 11:06:20;;;;;;;;;8.75;7.25;;;;;31.06;64.93;101541.44;5033606;28;47839;-82
2023/10/10 11:14:09;;;;;;;;;29.67;19.33;;;;;30.84;64.85;101552.81;5029915;28;45408;-81
2023/10/10 11:16:37;;;;;;;;;9.25;8.75;;;;;30.63;66.05;101530.78;5022507;28;45742;-82
2023/10/10 11:19:25;;;;;;;;;7.75;7.75;;;;;30.63;67.69;101542.13;5035459;28;46077;-80
2023/10/10 11:22:05;;;;;;;;;9.25;8.50;;;;;30.50;67.61;101531.72;5025501;28;45503;-82
2023/10/10 11:24:34;;;;;;;;;6.75;6.75;;;;;30.46;65.79;101523.03;5053962;28;45223;-80
2023/10/10 11:29:34;;;;;;;;;11.00;7.75;;;;;30.50;64.88;101515.56;5052079;28;46045;-79
2023/10/10 11:32:11;;;;;;;;;12.50;9.25;;;;;30.64;65.20;101526.78;5041974;28;45419;-80
2023/10/10 11:34:47;;;;;;;;;10.50;10.00;;;;;30.67;65.73;101523.28;5016361;28;45903;-82
2023/10/10 11:37:31;;;;;;;;;10.50;9.00;;;;;30.78;66.55;101515.31;5047757;28;45679;-80
2023/10/10 11:40:44;;;;;;;;;12.50;9.50;;;;;30.81;66.22;101518.34;5011421;28;46728;-90
2023/10/10 11:43:12;;;;;;;;;9.25;7.50;;;;;30.68;65.79;101490.97;5010245;28;45536;-80
2023/10/10 11:45:39;;;;;;;;;12.75;8.50;;;;;30.68;64.33;101502.31;5037728;28;45325;-81
2023/10/10 11:48:12;;;;;;;;;9.75;7.00;;;;;30.67;62.81;101511.97;5039980;28;45550;-80
2023/10/10 11:50:44;;;;;;;;;7.25;7.25;;;;;30.34;60.88;101483.97;5051297;28;45762;-81
2023/10/10 11:53:29;;;;;;;;;13.00;8.00;;;;;30.15;58.35;101477.72;5036843;28;45623;-88
2023/10/10 11:55:56;;;;;;;;;7.50;6.50;;;;;30.00;60.35;101471.34;5047031;28;45683;-81
2023/10/10 11:58:35;;;;;;;;;7.00;6.00;;;;;30.05;59.83;101478.84;5048405;28;45598;-80
2023/10/10 12:01:06;;;;;;;;;10.25;9.25;;;;;29.89;60.22;101478.41;5047404;28;45469;-81
2023/10/10 12:06:04;;;;;;;;;9.00;6.75;;;;;29.58;58.42;101462.19;5048722;28;45478;-80
2023/10/10 12:08:29;;;;;;;;;8.50;7.50;;;;;29.57;60.93;101481.16;5017966;28;46002;-82
2023/10/10 12:11:12;;;;;;;;;7.00;7.00;;;;;29.39;59.55;101466.06;5039763;28;46050;-83
2023/10/10 12:13:38;;;;;;;;;10.25;6.50;;;;;29.19;59.46;101466.50;5023239;28;45498;-82
2023/10/10 12:16:10;;;;;;;;;10.00;8.00;;;;;28.94;60.08;101463.13;5036807;28;45420;-83
2023/10/10 12:18:49;;;;;;;;;9.25;6.50;;;;;28.78;60.87;101465.44;5043308;28;45397;-80
2023/10/10 12:21:19;;;;;;;;;8.25;7.25;;;;;28.38;61.06;101438.88;5041115;28;45455;-82
2023/10/10 12:23:47;;;;;;;;;6.25;6.25;;;;;28.30;60.41;101444.09;5040423;28;44725;-79
2023/10/10 12:26:13;;;;;;;;;9.00;7.00;;;;;28.19;60.17;101448.28;5030202;28;45838;-83
2023/10/10 12:28:39;;;;;;;;;10.25;7.00;;;;;28.04;59.63;101446.56;5035876;28;45565;-83
2023/10/10 12:31:08;;;;;;;;;8.50;6.25;;;;;27.91;60.11;101441.72;5040077;28;46987;-80
2023/10/10 12:33:36;;;;;;;;;9.25;6.50;;;;;27.71;61.34;101425.97;5026119;28;45280;-82
2023/10/10 12:36:07;;;;;;;;;5.00;3.50;;;;;27.76;61.51;101451.28;5030094;28;45221;-80
2023/10/10 12:38:33;;;;;;;;;7.00;6.25;;;;;27.50;59.60;101417.06;5046229;28;45196;-83
2023/10/10 12:40:58;;;;;;;;;7.25;6.00;;;;;27.48;60.91;101428.63;5028379;28;46929;-81
2023/10/10 12:43:24;;;;;;;;;10.50;7.75;;;;;27.51;60.33;101444.09;5049074;28;45458;-82
2023/10/10 12:45:51;;;;;;;;;8.50;7.00;;;;;27.33;60.77;101414.81;5053004;28;45326;-81
2023/10/10 12:48:20;;;;;;;;;9.75;6.00;;;;;27.40;61.35;101427.34;5029261;28;46265;-79
2023/10/10 12:50:50;;;;;;;;;11.25;7.50;;;;;27.29;61.39;101421.03;5048527;28;45502;-81
2023/10/10 12:53:20;;;;;;;;;9.75;6.50;;;;;27.20;61.36;101408.78;5059809;28;45169;-81
2023/10/10 12:55:55;;;;;;;;;11.25;6.75;;;;;27.24;60.71;101411.81;5061552;28;45491;-80
2023/10/10 12:58:22;;;;;;;;;10.00;6.50;;;;;27.20;60.05;101399.47;5045704;28;45793;-82
2023/10/10 13:00:52;;;;;;;;;8.75;6.75;;;;;27.16;59.33;101399.25;5056098;28;46443;-80
2023/10/10 13:03:23;;;;;;;;;9.25;8.00;;;;;27.09;58.75;101395.97;5032915;28;45522;-81
2023/10/10 13:05:52;;;;;;;;;10.50;8.25;;;;;27.21;59.67;101401.97;5045409;28;45453;-81
2023/10/10 13:08:20;;;;;;;;;6.50;6.25;;;;;27.13;58.95;101411.13;5052856;28;45541;-79
2023/10/10 13:10:54;;;;;;;;;7.75;5.00;;;;;27.16;58.90;101413.34;5046237;28;45856;-82
2023/10/10 13:13:45;;;;;;;;;8.00;7.00;;;;;27.12;59.64;101409.44;5030398;28;45444;-82
2023/10/10 13:16:22;;;;;;;;;6.00;6.00;;;;;27.11;59.45;101419.03;5047159;28;45327;-81
2023/10/10 13:18:49;;;;;;;;;11.25;7.00;;;;;27.04;58.07;101401.72;5055734;28;44968;-80
2023/10/10 13:21:15;;;;;;;;;9.25;6.25;;;;;27.04;58.62;101407.34;5064272;28;45755;-81
2023/10/10 13:23:43;;;;;;;;;7.75;7.75;;;;;26.86;58.84;101376.06;5052684;28;45515;-81
2023/10/10 13:26:09;;;;;;;;;11.25;8.00;;;;;26.95;58.75;101391.13;5063575;28;44786;-82
2023/10/10 13:28:36;;;;;;;;;7.50;7.00;;;;;27.00;59.16;101401.47;5063152;28;45290;-83
2023/10/10 13:31:02;;;;;;;;;9.25;6.00;;;;;26.99;57.97;101398.94;5058701;28;45460;-81
2023/10/10 13:33:27;;;;;;;;;5.00;5.00;;;;;26.97;57.52;101396.44;5068378;28;45297;-84
2023/10/10 13:35:53;;;;;;;;;8.75;7.75;;;;;26.87;56.99;101383.38;5068295;28;46034;-84
2023/10/10 13:38:18;;;;;;;;;7.25;7.25;;;;;26.77;56.31;101358.19;5058560;28;44776;-82
2023/10/10 13:40:46;;;;;;;;;7.00;7.00;;;;;26.93;56.48;101384.97;5049831;28;45507;-82
2023/10/10 13:43:18;;;;;;;;;7.50;6.00;;;;;26.93;56.73;101386.94;5046582;28;45834;-81
2023/10/10 13:45:45;;;;;;;;;6.50;6.50;;;;;26.91;56.53;101381.59;5022269;28;45737;-82
2023/10/10 13:48:13;;;;;;;;;8.50;7.00;;;;;26.93;56.27;101379.34;5045772;28;45545;-81
2023/10/10 13:50:42;;;;;;;;;6.25;5.00;;;;;26.84;56.75;101375.53;5035752;28;46118;-81
2023/10/10 13:53:12;;;;;;;;;8.25;7.25;;;;;26.94;56.69;101385.78;5035638;28;45443;-82
2023/10/10 13:55:38;;;;;;;;;9.00;6.50;;;;;26.95;56.96;101393.94;5026309;28;45969;-80